CheckWX is a tool to help pilots better visualize weather data.  It is not intended as a substitute for an official pre-flight weather briefing.

03:12:27 UTC

KMCJ METAR
Houston
Houston, Texas, USA
Current

17 mins ago

KMCJ 260255Z AUTO 00000KT 10SM CLR 26/23 A3004 RMK A01
Observed
May-26 @ 02:55 UTC
Visibility
10 SM
Flight Rules
VFR
Cloud Levels
  • Clear skies
Temperature
26°C / 79°F
Dewpoint
23°C / 73°F
Humidity
84%
Altimeter
30.04" Hg
Pressure
1017.32 hPa
Previous

37 mins ago

KMCJ 260235Z AUTO 00000KT 10SM CLR 26/23 A3003 RMK A01
Observed
May-26 @ 02:35 UTC
Visibility
10 SM
Flight Rules
VFR
Cloud Levels
  • Clear skies
Temperature
26°C / 79°F
Dewpoint
23°C / 73°F
Humidity
84%
Altimeter
30.03" Hg
Pressure
1016.92 hPa
Previous

57 mins ago

KMCJ 260215Z AUTO VRB04KT 10SM CLR 27/23 A3003 RMK A01
Observed
May-26 @ 02:15 UTC
Wind
  • Variable at 4 KTS
Visibility
10 SM
Flight Rules
VFR
Cloud Levels
  • Clear skies
Temperature
27°C / 81°F
Dewpoint
23°C / 73°F
Heat Index
30°C / 86°F
Humidity
79%
Altimeter
30.03" Hg
Pressure
1016.92 hPa